Aurora, NY

5:43 PM EDT on September 02, 2015 (GMT -0400)
Sunnyside Dairy | | Change Station
CLOSE
Current Station
Personal Weather Station
Location: Scipio Center, NY
Elevation: 1168 ft
Nearby Weather Stations

Elev 1168 ft 42.73 °N, 76.57 °W | Updated 1 minute ago

Partly Cloudy
Partly Cloudy
82.7 °F
Feels Like 88 °F
N
3.0
Wind Variable Wind from NW
Gusts 3.0 mph

Today
High -- | Low -- °F
--% Chance of Precip.
Yesterday
High -- | Low -- °F
Precip. -- in
6:32 AM 7:39 PM
Waning Gibbous, 77% visible
Pressure 29.98 in
Visibility 8.0 miles
Clouds Scattered Clouds 4000 ft
Heat Index 88 °F
Dew Point 72 °F
Humidity 69%
Rainfall 0.00 in
Snow Depth Not available.
UV 2 out of 12
Pollen 9.40 out of 12
Air Quality Not available.
Flu Activity Not available.
METAR KITH 022056Z 36005KT 8SM SCT040 28/20 A2999 RMK AO2 58017 T02830200 SLP151
Pressure 29.98 in
Visibility 8.0 miles
Clouds Scattered Clouds 4000 ft
Heat Index 88 °F
Dew Point 72 °F
Humidity 69%
Rainfall 0.00 in
Snow Depth Not available.
UV 2 out of 12
Pollen 9.40 out of 12
Air Quality Not available.
Flu Activity Not available.
METAR KITH 022056Z 36005KT 8SM SCT040 28/20 A2999 RMK AO2 58017 T02830200 SLP151

10-Day Weather Forecast

×

Almanac

Astronomy

Sep. 02, 2015 Rise Set
Actual Time
Civil Twilight
Nautical Twilight
Astronomical Twilight
Moon
Length of Visible Light
Length of Day
Tomorrow will be .
, % of the Moon is Illuminated

Today's Extremes

State Highs State Lows

Community

WunderPhotos

Upload Photos

1,851,818 photos uploaded!

WunderBlogs® & News

Nearby

Air Quality

  Air Quality AQ Index Pollutant
Not available.

Snow Depth

Station Depth Elevation

Earthquake Activity

City Distance Mag. Time & Date
Minimum magnitude displayed is 2.5.

Coastal Water Temperatures

Place Temperature

Stations

Nearby Weather Stations

Station Location Temp. Windchill Dew Point Humidity Wind Precip. Elev Updated Type